Дата Пункты Температура Давл., мм. Влажн., % Ветер Погодные явления
Воздуха Воды Направл. Скорость
17.04.16 09:00 Одесса 13.0 10.0 757 87 Пд 3 21 час
17.04.16 06:00 Одесса 15.0 10.0 757 79 Пд-З 3 18 часов
17.04.16 03:00 Одесса 15.0 10.0 757 84 Пд 3 15 часов
17.04.16 12:00 Одесса 14.0 9.0 758 91 Пд 3 12 часов
17.04.16 09:00 Одесса 14.0 9.0 757 85 Пд-З 2 09 часов
17.04.16 06:00 Одесса 11.0 9.0 757 99 Пд 2 06 часов
17.04.16 03:00 Одесса 11.0 9.0 757 99 Пд 3 03 часа
16.04.16 09:00 Одесса 12.0 9.0 759 93 Пд 3 21 час
16.04.16 06:00 Одесса 13.0 10.0 759 95 Пд 4 18 часов
16.04.16 03:00 Одесса 14.0 10.0 759 72 Пд 4 15 часов
16.04.16 12:00 Одесса 13.0 11.0 760 80 Пд 4 12 часов
16.04.16 09:00 Одесса 14.0 11.0 759 65 З 1 09 часов
16.04.16 06:00 Одесса 7.0 11.0 758 92 З 3 06 часов
16.04.16 03:00 Одесса 7.0 11.0 757 91 З 3 03 часа
15.04.16 09:00 Одесса 10.0 11.0 755 89 Пн 2 21 час
15.04.16 06:00 Одесса 11.0 11.0 753 81 Пн-З 5 18 часов
15.04.16 03:00 Одесса 12.0 11.0 750 95 Пн-З 5 15 часов
15.04.16 12:00 Одесса 14.0 11.0 748 95 З 4 12 часов
15.04.16 09:00 Одесса 14.0 11.0 747 90 З 3 09 часов
15.04.16 06:00 Одесса 13.0 11.0 746 98 З 3 06 часов
Количество строк
351 352 353 354 355 356 357 358 359 360
Page 357 of 511